Time;durP1;ratioP1;P1;durP2;ratioP2;P2;SDS_P1;SDS_P2;PMS_P1;PMS_P2;Temp;Humidity;BMP_temperature;BMP_pressure;BME280_temperature;BME280_humidity;BME280_pressure;Samples;Min_cycle;Max_cycle;Signal;HPM_P1;HPM_P2
2024/03/11 00:01:06;;;;;;;19.08;15.18;;;10.50;99.90;;;;;;5039947;28;20130;-36
2024/03/11 00:03:33;;;;;;;18.23;14.38;;;10.50;99.90;;;;;;5039693;28;20430;-36
2024/03/11 00:06:01;;;;;;;18.55;14.32;;;10.50;99.90;;;;;;5039158;28;20605;-36
2024/03/11 00:08:26;;;;;;;18.65;15.05;;;10.50;99.90;;;;;;5038707;28;20056;-31
2024/03/11 00:10:55;;;;;;;16.83;14.02;;;10.50;99.90;;;;;;5038349;28;20574;-33
2024/03/11 00:13:25;;;;;;;18.73;15.13;;;10.50;99.90;;;;;;5039470;28;20021;-35
2024/03/11 00:15:51;;;;;;;18.55;15.02;;;10.50;99.90;;;;;;5037800;28;20057;-30
2024/03/11 00:18:20;;;;;;;18.27;15.18;;;10.50;99.90;;;;;;5038516;28;20017;-33
2024/03/11 00:20:46;;;;;;;17.60;14.45;;;10.40;99.90;;;;;;5039549;28;20033;-33
2024/03/11 00:23:15;;;;;;;19.67;15.20;;;10.40;99.90;;;;;;5039330;28;20024;-34
2024/03/11 00:25:40;;;;;;;19.73;15.82;;;10.50;99.90;;;;;;5039058;28;20179;-33
2024/03/11 00:28:08;;;;;;;20.27;15.32;;;10.40;99.90;;;;;;5038865;28;20138;-35
2024/03/11 00:30:35;;;;;;;18.50;15.02;;;10.40;99.90;;;;;;5039361;28;20448;-34
2024/03/11 00:33:02;;;;;;;19.20;16.17;;;10.40;99.90;;;;;;5039013;28;20151;-33
2024/03/11 00:35:28;;;;;;;17.85;14.93;;;10.40;99.90;;;;;;5039051;28;20142;-33
2024/03/11 00:37:54;;;;;;;19.35;15.50;;;10.40;99.90;;;;;;5039112;28;20048;-33
2024/03/11 00:40:20;;;;;;;21.58;15.02;;;10.40;99.90;;;;;;5037991;28;20484;-34
2024/03/11 00:42:45;;;;;;;19.23;14.73;;;10.40;99.90;;;;;;5040002;28;20503;-33
2024/03/11 00:45:11;;;;;;;18.73;15.63;;;10.40;99.90;;;;;;5039667;28;20025;-31
2024/03/11 00:47:41;;;;;;;18.17;15.05;;;10.30;99.90;;;;;;5038741;28;20076;-35
2024/03/11 00:50:07;;;;;;;18.88;15.18;;;10.30;99.90;;;;;;5040217;28;20033;-35
2024/03/11 00:52:34;;;;;;;19.40;15.75;;;10.30;99.90;;;;;;5038770;28;20043;-34
2024/03/11 00:55:00;;;;;;;18.38;14.93;;;10.30;99.90;;;;;;5039082;28;20048;-32
2024/03/11 00:57:26;;;;;;;16.48;13.35;;;10.30;99.90;;;;;;5038181;28;20471;-31
2024/03/11 00:59:53;;;;;;;20.17;15.32;;;10.30;99.90;;;;;;5039489;28;20025;-34
2024/03/11 01:02:18;;;;;;;20.10;15.65;;;10.20;99.90;;;;;;5038146;28;20099;-33
2024/03/11 01:04:45;;;;;;;18.98;15.38;;;10.20;99.90;;;;;;5039690;28;20033;-33
2024/03/11 01:07:10;;;;;;;19.85;15.38;;;10.20;99.90;;;;;;5038319;28;20040;-36
2024/03/11 01:09:36;;;;;;;18.48;14.77;;;10.20;99.90;;;;;;5039121;28;20033;-36
2024/03/11 01:12:01;;;;;;;18.13;14.75;;;10.20;99.90;;;;;;5039424;28;20024;-36
2024/03/11 01:14:27;;;;;;;18.60;15.15;;;10.20;99.90;;;;;;5037893;28;20784;-34
2024/03/11 01:16:53;;;;;;;18.98;14.98;;;10.20;99.90;;;;;;5038393;28;20040;-35
2024/03/11 01:19:20;;;;;;;19.08;14.93;;;10.20;99.90;;;;;;5038826;28;20029;-36
2024/03/11 01:21:48;;;;;;;19.63;15.15;;;10.20;99.90;;;;;;5037804;28;20116;-34
2024/03/11 01:24:13;;;;;;;17.77;14.05;;;10.20;99.90;;;;;;5027791;28;20048;-34
2024/03/11 01:26:39;;;;;;;17.85;15.02;;;10.20;99.90;;;;;;5038364;28;20144;-36
2024/03/11 01:29:06;;;;;;;17.35;14.00;;;10.20;99.90;;;;;;5037510;28;20033;-33
2024/03/11 01:31:32;;;;;;;18.73;14.85;;;10.20;99.90;;;;;;5039059;28;20049;-33
2024/03/11 01:33:59;;;;;;;18.55;14.75;;;10.20;99.90;;;;;;5038407;28;20145;-30
2024/03/11 01:36:25;;;;;;;17.45;14.45;;;10.20;99.90;;;;;;5038163;28;20032;-34
2024/03/11 01:38:51;;;;;;;18.65;14.38;;;10.20;99.90;;;;;;5039340;28;20040;-33
2024/03/11 01:41:18;;;;;;;18.27;15.13;;;10.10;99.90;;;;;;5042012;28;20029;-34
2024/03/11 01:43:45;;;;;;;17.83;13.98;;;10.10;99.90;;;;;;5041976;28;20078;-34
2024/03/11 01:46:11;;;;;;;18.35;14.43;;;10.20;99.90;;;;;;5040769;28;20090;-36
2024/03/11 01:48:37;;;;;;;17.40;14.40;;;10.20;99.90;;;;;;5040631;28;20696;-35
2024/03/11 01:51:04;;;;;;;20.17;14.98;;;10.20;99.90;;;;;;5040551;28;20452;-34
2024/03/11 01:53:30;;;;;;;18.98;14.75;;;10.20;99.90;;;;;;5040250;28;20677;-36
2024/03/11 01:55:56;;;;;;;17.45;14.57;;;10.20;99.90;;;;;;5041239;28;20040;-36
2024/03/11 01:58:25;;;;;;;17.55;14.15;;;10.20;99.90;;;;;;5039677;28;20021;-32
2024/03/11 02:00:51;;;;;;;18.02;14.15;;;10.20;99.90;;;;;;5042227;28;20032;-34
2024/03/11 02:03:17;;;;;;;18.50;14.68;;;10.20;99.90;;;;;;5042305;28;20021;-35
2024/03/11 02:05:43;;;;;;;18.33;14.73;;;10.20;99.90;;;;;;5041850;28;20028;-37
2024/03/11 02:08:09;;;;;;;18.23;15.02;;;10.20;99.90;;;;;;5041417;28;20071;-33
2024/03/11 02:10:36;;;;;;;19.38;15.35;;;10.20;99.90;;;;;;5041196;28;20054;-36
2024/03/11 02:13:08;;;;;;;18.63;14.68;;;10.20;99.90;;;;;;5042055;28;20123;-35
2024/03/11 02:15:33;;;;;;;17.95;14.65;;;10.20;99.90;;;;;;5038454;28;20033;-36
2024/03/11 02:18:00;;;;;;;17.65;15.25;;;10.20;99.90;;;;;;5041867;28;20807;-36
2024/03/11 02:20:26;;;;;;;18.45;14.65;;;10.20;99.90;;;;;;5041001;28;20063;-35
2024/03/11 02:22:54;;;;;;;19.70;14.93;;;10.20;99.90;;;;;;5041869;28;20029;-33
2024/03/11 02:25:22;;;;;;;18.20;14.95;;;10.20;99.90;;;;;;5040660;28;20021;-35
2024/03/11 02:27:51;;;;;;;21.05;17.02;;;10.20;99.90;;;;;;5042044;28;20036;-32
2024/03/11 02:30:17;;;;;;;19.60;15.73;;;10.10;99.90;;;;;;5041652;28;20025;-34
2024/03/11 02:32:44;;;;;;;18.75;14.65;;;10.10;99.90;;;;;;5040875;28;20032;-32
2024/03/11 02:35:10;;;;;;;18.38;14.68;;;10.10;99.90;;;;;;5040853;28;20120;-36
2024/03/11 02:37:36;;;;;;;19.48;16.23;;;10.10;99.90;;;;;;5041060;28;20136;-32
2024/03/11 02:40:09;;;;;;;20.20;16.10;;;10.10;99.90;;;;;;5040728;28;20064;-37
2024/03/11 02:42:34;;;;;;;;;;;10.10;99.90;;;;;;5041459;28;20084;-34
2024/03/11 02:45:11;;;;;;;17.88;14.07;;;10.10;99.90;;;;;;5041483;28;20750;-36
2024/03/11 02:47:37;;;;;;;20.25;15.48;;;10.00;99.90;;;;;;5040707;28;20025;-37
2024/03/11 02:50:07;;;;;;;20.42;15.93;;;10.00;99.90;;;;;;5041470;28;20039;-36
2024/03/11 02:52:34;;;;;;;20.50;16.10;;;10.00;99.90;;;;;;5040032;28;20539;-36
2024/03/11 02:55:00;;;;;;;19.42;15.55;;;10.00;99.90;;;;;;5040871;28;20033;-29
2024/03/11 02:57:25;;;;;;;20.55;15.75;;;10.00;99.90;;;;;;5040801;28;20042;-32
2024/03/11 02:59:51;;;;;;;20.65;15.65;;;10.00;99.90;;;;;;5040568;28;20025;-33
2024/03/11 03:02:18;;;;;;;20.88;16.67;;;10.00;99.90;;;;;;5040986;28;20768;-34
2024/03/11 03:04:45;;;;;;;18.80;14.70;;;9.90;99.90;;;;;;5041263;28;20032;-32
2024/03/11 03:07:12;;;;;;;19.52;15.75;;;9.90;99.90;;;;;;5039768;28;20028;-35
2024/03/11 03:09:38;;;;;;;21.77;16.90;;;9.90;99.90;;;;;;5040951;28;20041;-34
2024/03/11 03:12:05;;;;;;;21.05;16.67;;;9.90;99.90;;;;;;5039975;28;20040;-31
2024/03/11 03:14:30;;;;;;;21.63;16.42;;;9.90;99.90;;;;;;5039613;28;20115;-33
2024/03/11 03:16:57;;;;;;;19.88;16.33;;;9.90;99.90;;;;;;5040911;28;20506;-33
2024/03/11 03:19:23;;;;;;;23.58;17.25;;;9.90;99.90;;;;;;5020600;28;20017;-34
2024/03/11 03:21:49;;;;;;;22.98;16.67;;;9.90;99.90;;;;;;5033904;28;20443;-34
2024/03/11 03:24:14;;;;;;;20.58;16.98;;;9.90;99.90;;;;;;5040653;28;20519;-35
2024/03/11 03:26:40;;;;;;;20.25;16.40;;;9.90;99.90;;;;;;5039828;28;20036;-37
2024/03/11 03:29:06;;;;;;;22.20;16.75;;;9.90;99.90;;;;;;5039341;28;20036;-36
2024/03/11 03:31:32;;;;;;;21.20;16.90;;;10.00;99.90;;;;;;5040458;28;20021;-31
2024/03/11 03:33:58;;;;;;;21.92;17.63;;;10.00;99.90;;;;;;5040846;28;20095;-32
2024/03/11 03:36:24;;;;;;;19.85;16.52;;;9.90;99.90;;;;;;5039087;28;20047;-37
2024/03/11 03:38:50;;;;;;;20.50;16.48;;;9.90;99.90;;;;;;5040604;28;20029;-34
2024/03/11 03:41:16;;;;;;;21.73;16.90;;;9.90;99.90;;;;;;5040135;28;20017;-34
2024/03/11 03:43:44;;;;;;;20.52;16.67;;;9.90;99.90;;;;;;5040153;28;20056;-34
2024/03/11 03:46:10;;;;;;;21.15;16.58;;;9.90;99.90;;;;;;5039968;28;20029;-31
2024/03/11 03:48:36;;;;;;;21.92;18.15;;;9.90;99.90;;;;;;5039477;28;20597;-35
2024/03/11 03:51:03;;;;;;;23.50;17.23;;;9.90;99.90;;;;;;5039897;28;20033;-34
2024/03/11 03:53:29;;;;;;;22.95;17.25;;;9.90;99.90;;;;;;5039710;28;20867;-33
2024/03/11 03:55:55;;;;;;;21.58;16.75;;;9.90;99.90;;;;;;5039453;28;20037;-31
2024/03/11 03:58:20;;;;;;;21.55;16.45;;;9.80;99.90;;;;;;5039145;28;20037;-33
2024/03/11 04:00:46;;;;;;;19.20;15.02;;;9.80;99.90;;;;;;5040758;28;20033;-34
2024/03/11 04:03:12;;;;;;;21.83;16.58;;;9.70;99.90;;;;;;5038696;28;20063;-34
2024/03/11 04:05:37;;;;;;;21.52;17.17;;;9.70;99.90;;;;;;5039683;28;20029;-35
2024/03/11 04:08:04;;;;;;;23.10;17.85;;;9.70;99.90;;;;;;5040265;28;20051;-34
2024/03/11 04:10:29;;;;;;;22.75;18.52;;;9.60;99.90;;;;;;5038814;28;20061;-31
2024/03/11 04:12:57;;;;;;;27.88;20.77;;;9.50;99.90;;;;;;5040307;28;20128;-30
2024/03/11 04:15:23;;;;;;;26.80;19.92;;;9.40;99.90;;;;;;5039717;28;20123;-34
2024/03/11 04:17:50;;;;;;;21.27;17.42;;;9.40;99.90;;;;;;5039207;28;20025;-34
2024/03/11 04:20:22;;;;;;;22.63;17.90;;;9.40;99.90;;;;;;5039390;28;20033;-35
2024/03/11 04:22:49;;;;;;;23.10;17.35;;;9.30;99.90;;;;;;5040076;28;20025;-34
2024/03/11 04:25:19;;;;;;;22.20;17.60;;;9.30;99.90;;;;;;5038987;28;20079;-33
2024/03/11 04:27:46;;;;;;;22.58;18.45;;;9.30;99.90;;;;;;5039339;28;20055;-32
2024/03/11 04:30:16;;;;;;;23.73;17.38;;;9.20;99.90;;;;;;5039480;28;20033;-34
2024/03/11 04:32:51;;;;;;;24.10;18.67;;;9.20;99.90;;;;;;5038907;28;20048;-32
2024/03/11 04:35:18;;;;;;;22.40;16.40;;;9.20;99.90;;;;;;5036875;28;20045;-31
2024/03/11 04:37:44;;;;;;;21.50;16.65;;;9.10;99.90;;;;;;5040087;28;20067;-31
2024/03/11 04:40:10;;;;;;;21.27;16.92;;;9.20;99.90;;;;;;5038843;28;20120;-33
2024/03/11 04:42:35;;;;;;;23.50;18.20;;;9.10;99.90;;;;;;5039836;28;20032;-31
2024/03/11 04:45:01;;;;;;;22.52;17.77;;;9.10;99.90;;;;;;5039270;28;20041;-34
2024/03/11 04:47:27;;;;;;;21.70;17.35;;;9.10;99.90;;;;;;5038588;28;20025;-34
2024/03/11 04:49:52;;;;;;;18.88;15.63;;;9.10;99.90;;;;;;5039924;28;20400;-34
2024/03/11 04:52:18;;;;;;;21.88;17.27;;;9.10;99.90;;;;;;5038564;28;20105;-31
2024/03/11 04:54:47;;;;;;;21.45;17.52;;;9.10;99.90;;;;;;5039341;28;20032;-34
2024/03/11 04:57:16;;;;;;;21.60;16.67;;;9.00;99.90;;;;;;5039424;28;20174;-36
2024/03/11 04:59:41;;;;;;;23.90;17.88;;;9.00;99.90;;;;;;5038551;28;20043;-34
2024/03/11 05:02:08;;;;;;;24.85;18.73;;;9.00;99.90;;;;;;5039594;28;20735;-34
2024/03/11 05:04:33;;;;;;;22.27;17.50;;;9.00;99.90;;;;;;5038603;28;20184;-33
2024/03/11 05:06:59;;;;;;;23.42;17.75;;;8.90;99.90;;;;;;5038954;28;20591;-32
2024/03/11 05:09:24;;;;;;;22.25;17.40;;;8.90;99.90;;;;;;5039285;28;20029;-35
2024/03/11 05:11:50;;;;;;;21.02;17.25;;;8.90;99.90;;;;;;5039340;28;20033;-34
2024/03/11 05:14:16;;;;;;;24.40;18.83;;;8.90;99.90;;;;;;5040012;28;20028;-34
2024/03/11 05:16:41;;;;;;;24.08;18.08;;;8.90;99.90;;;;;;5043277;28;20052;-36
2024/03/11 05:19:07;;;;;;;23.77;18.27;;;8.90;99.90;;;;;;5042929;28;20022;-34
2024/03/11 05:21:33;;;;;;;21.15;16.58;;;8.90;99.90;;;;;;5041778;28;20021;-36
2024/03/11 05:23:59;;;;;;;21.90;16.63;;;9.00;99.90;;;;;;5043215;28;20243;-36
2024/03/11 05:26:24;;;;;;;22.33;17.45;;;8.90;99.90;;;;;;5042465;28;20538;-34
2024/03/11 05:28:50;;;;;;;20.50;16.60;;;9.00;99.90;;;;;;5042420;28;20743;-31
2024/03/11 05:31:16;;;;;;;19.77;16.23;;;9.00;99.90;;;;;;5042596;28;20072;-33
2024/03/11 05:33:42;;;;;;;20.13;15.57;;;9.00;99.90;;;;;;5042884;28;20040;-34
2024/03/11 05:36:07;;;;;;;21.65;16.55;;;9.00;99.90;;;;;;5041902;28;20064;-36
2024/03/11 05:38:34;;;;;;;22.73;18.30;;;9.00;99.90;;;;;;5043137;28;20033;-33
2024/03/11 05:40:59;;;;;;;22.00;17.30;;;9.00;99.90;;;;;;5042300;28;20028;-36
2024/03/11 05:43:25;;;;;;;21.58;17.05;;;9.00;99.90;;;;;;5041691;28;20025;-34
2024/03/11 05:45:50;;;;;;;23.00;17.15;;;9.00;99.90;;;;;;5042976;28;20033;-36
2024/03/11 05:48:18;;;;;;;22.73;17.23;;;9.00;99.90;;;;;;5042904;28;20021;-34
2024/03/11 05:50:48;;;;;;;20.73;16.45;;;9.00;99.90;;;;;;5041777;28;20068;-36
2024/03/11 05:53:16;;;;;;;20.20;15.65;;;9.00;99.90;;;;;;5032006;28;20107;-35
2024/03/11 05:55:42;;;;;;;20.92;16.05;;;8.90;99.90;;;;;;5042292;28;20306;-31
2024/03/11 05:58:10;;;;;;;23.60;18.02;;;9.00;99.90;;;;;;5042409;28;20025;-34
2024/03/11 06:00:42;;;;;;;23.20;18.38;;;8.90;99.90;;;;;;5042299;28;20025;-34
2024/03/11 06:03:08;;;;;;;22.40;17.17;;;9.00;99.90;;;;;;5038725;28;20025;-33
2024/03/11 06:05:34;;;;;;;21.10;16.92;;;8.90;99.90;;;;;;5042454;28;20376;-32
2024/03/11 06:07:59;;;;;;;23.42;18.50;;;8.90;99.90;;;;;;5042275;28;20090;-32
2024/03/11 06:10:25;;;;;;;22.77;17.90;;;8.90;99.90;;;;;;5041470;28;20021;-36
2024/03/11 06:12:50;;;;;;;23.70;17.85;;;8.90;99.90;;;;;;5042030;28;20029;-35
2024/03/11 06:15:16;;;;;;;19.92;16.33;;;8.90;99.90;;;;;;5042064;28;20025;-34
2024/03/11 06:17:42;;;;;;;20.98;16.25;;;8.90;99.90;;;;;;5041146;28;20017;-30
2024/03/11 06:20:09;;;;;;;22.55;16.83;;;8.90;99.90;;;;;;5042189;28;20027;-32
2024/03/11 06:22:35;;;;;;;18.90;14.98;;;8.90;99.90;;;;;;5041691;28;20596;-33
2024/03/11 06:25:04;;;;;;;20.23;15.48;;;8.90;99.90;;;;;;5040650;28;20040;-34
2024/03/11 06:27:29;;;;;;;19.65;15.48;;;8.90;99.90;;;;;;5041014;28;20025;-34
2024/03/11 06:29:56;;;;;;;20.27;15.65;;;9.00;99.90;;;;;;5042405;28;20833;-34
2024/03/11 06:32:23;;;;;;;21.77;16.15;;;8.90;99.90;;;;;;5040775;28;20462;-35
2024/03/11 06:34:49;;;;;;;20.85;16.17;;;8.90;99.90;;;;;;5042871;28;20029;-34
2024/03/11 06:37:14;;;;;;;20.98;15.15;;;8.90;99.90;;;;;;5041266;28;20570;-33
2024/03/11 06:39:40;;;;;;;21.20;15.73;;;9.00;99.90;;;;;;5041300;28;20136;-30
2024/03/11 06:42:06;;;;;;;21.58;16.40;;;9.00;99.90;;;;;;5040773;28;20047;-30
2024/03/11 06:44:32;;;;;;;20.75;15.80;;;9.00;99.90;;;;;;5039600;28;20540;-35
2024/03/11 06:46:58;;;;;;;19.73;16.00;;;9.00;99.90;;;;;;5040223;28;20050;-33
2024/03/11 06:49:28;;;;;;;20.60;16.00;;;9.10;99.90;;;;;;5040186;28;20404;-33
2024/03/11 06:52:00;;;;;;;19.55;15.98;;;9.10;99.90;;;;;;5040683;28;20056;-33
2024/03/11 06:54:29;;;;;;;19.15;15.23;;;9.10;99.90;;;;;;5039275;28;20025;-33
2024/03/11 06:56:54;;;;;;;19.77;16.17;;;9.20;99.90;;;;;;5038977;28;20044;-35
2024/03/11 06:59:21;;;;;;;20.98;16.50;;;9.20;99.90;;;;;;5038526;28;20777;-34
2024/03/11 07:01:46;;;;;;;21.08;15.45;;;9.20;99.90;;;;;;5039394;28;20165;-32
2024/03/11 07:04:12;;;;;;;18.60;14.82;;;9.20;99.90;;;;;;5038985;28;20761;-35
2024/03/11 07:06:41;;;;;;;19.55;15.32;;;9.20;99.90;;;;;;5040618;28;20060;-34
2024/03/11 07:09:07;;;;;;;20.60;16.50;;;9.20;99.90;;;;;;5039583;28;20095;-36
2024/03/11 07:11:33;;;;;;;22.42;16.27;;;9.20;99.90;;;;;;5038638;28;20027;-35
2024/03/11 07:13:58;;;;;;;22.45;17.05;;;9.20;99.90;;;;;;5038042;28;20017;-34
2024/03/11 07:16:24;;;;;;;21.05;15.95;;;9.10;99.90;;;;;;5038453;28;20048;-33
2024/03/11 07:18:54;;;;;;;22.63;17.35;;;9.10;99.90;;;;;;5038399;28;20034;-32
2024/03/11 07:21:20;;;;;;;23.35;16.90;;;9.00;99.90;;;;;;5038012;28;20132;-33
2024/03/11 07:23:48;;;;;;;21.48;16.88;;;9.00;99.90;;;;;;5038378;28;20697;-32
2024/03/11 07:26:14;;;;;;;20.50;16.42;;;9.00;99.90;;;;;;5039503;28;20056;-31
2024/03/11 07:28:40;;;;;;;21.48;16.90;;;8.90;99.90;;;;;;5039016;28;20076;-31
2024/03/11 07:31:06;;;;;;;23.70;18.20;;;8.90;99.90;;;;;;5038972;28;20041;-33
2024/03/11 07:33:31;;;;;;;23.27;17.30;;;8.90;99.90;;;;;;5037391;28;20024;-32
2024/03/11 07:35:57;;;;;;;22.02;17.63;;;8.80;99.90;;;;;;5039762;28;20032;-32
2024/03/11 07:38:23;;;;;;;22.48;17.58;;;8.90;99.90;;;;;;5038809;28;20025;-35
2024/03/11 07:40:49;;;;;;;24.52;19.48;;;8.90;99.90;;;;;;5039860;28;20036;-32
2024/03/11 07:43:15;;;;;;;25.27;19.75;;;8.90;99.90;;;;;;5039318;28;20203;-34
2024/03/11 07:45:41;;;;;;;28.58;20.50;;;8.80;99.90;;;;;;5038833;28;20030;-31
2024/03/11 07:48:12;;;;;;;23.75;19.05;;;8.80;99.90;;;;;;5038835;28;20488;-34
2024/03/11 07:50:42;;;;;;;25.20;19.50;;;8.80;99.90;;;;;;5038086;28;20513;-32
2024/03/11 07:53:08;;;;;;;25.33;20.15;;;8.80;99.90;;;;;;5039251;28;20351;-32
2024/03/11 07:55:34;;;;;;;25.08;19.45;;;8.80;99.90;;;;;;5038740;28;20767;-34
2024/03/11 07:58:01;;;;;;;24.75;18.23;;;8.80;99.90;;;;;;5040584;28;20035;-30
2024/03/11 08:00:29;;;;;;;23.35;19.08;;;8.80;99.90;;;;;;5038771;28;20542;-33
2024/03/11 08:02:59;;;;;;;26.48;19.00;;;8.80;99.90;;;;;;5037346;28;20031;-33
2024/03/11 08:05:25;;;;;;;24.73;19.80;;;8.80;99.90;;;;;;5037639;28;20043;-32
2024/03/11 08:07:51;;;;;;;26.48;19.65;;;8.80;99.90;;;;;;5038516;28;20063;-34
2024/03/11 08:10:19;;;;;;;26.70;19.42;;;8.70;99.90;;;;;;5038952;28;20032;-33
2024/03/11 08:12:47;;;;;;;22.10;17.48;;;8.70;99.90;;;;;;5038362;28;20923;-33
2024/03/11 08:15:14;;;;;;;21.55;16.45;;;8.70;99.90;;;;;;5037707;28;20045;-32
2024/03/11 08:17:46;;;;;;;19.85;15.93;;;8.80;99.90;;;;;;5036929;28;20036;-36
2024/03/11 08:20:21;;;;;;;19.85;15.52;;;8.80;99.90;;;;;;5037365;28;20419;-32
2024/03/11 08:22:49;;;;;;;21.98;16.65;;;8.80;99.90;;;;;;5035608;28;20773;-34
2024/03/11 08:25:15;;;;;;;20.80;16.33;;;8.80;99.90;;;;;;5037997;28;20086;-33
2024/03/11 08:27:53;;;;;;;19.85;15.93;;;8.80;99.90;;;;;;5039558;28;20025;-35
2024/03/11 08:30:21;;;;;;;22.23;17.13;;;8.80;99.90;;;;;;5039221;28;20043;-33
2024/03/11 08:32:50;;;;;;;21.77;17.30;;;8.80;99.90;;;;;;5039079;28;20033;-32
2024/03/11 08:35:21;;;;;;;21.05;15.93;;;8.80;99.90;;;;;;5038836;28;20029;-33
2024/03/11 08:37:47;;;;;;;19.70;15.15;;;8.80;99.90;;;;;;5039024;28;20025;-34
2024/03/11 08:40:16;;;;;;;23.13;17.55;;;8.80;99.90;;;;;;5039189;28;20040;-31
2024/03/11 08:42:46;;;;;;;22.73;17.20;;;8.80;99.90;;;;;;5038668;28;20112;-33
2024/03/11 08:45:12;;;;;;;24.00;17.90;;;8.80;99.90;;;;;;5039059;28;20480;-34
2024/03/11 08:47:39;;;;;;;23.75;18.52;;;8.80;99.90;;;;;;5039170;28;20111;-30
2024/03/11 08:50:10;;;;;;;21.55;17.38;;;8.80;99.90;;;;;;5041568;28;20025;-33
2024/03/11 08:52:35;;;;;;;23.77;17.73;;;8.80;99.90;;;;;;5042412;28;20025;-36
2024/03/11 08:55:05;;;;;;;22.85;17.33;;;8.80;99.90;;;;;;5043104;28;20024;-34
2024/03/11 08:57:32;;;;;;;25.33;18.48;;;8.80;99.90;;;;;;5042851;28;20024;-33
2024/03/11 08:59:57;;;;;;;24.52;17.60;;;8.80;99.90;;;;;;5043088;28;20142;-34
2024/03/11 09:02:23;;;;;;;25.85;18.70;;;8.80;99.90;;;;;;5042541;28;20563;-34
2024/03/11 09:04:49;;;;;;;23.25;17.08;;;8.80;99.90;;;;;;5043243;28;20506;-30
2024/03/11 09:07:15;;;;;;;25.70;18.73;;;8.80;99.90;;;;;;5042603;28;20046;-32
2024/03/11 09:09:41;;;;;;;25.70;18.55;;;8.80;99.90;;;;;;5042740;28;20033;-34
2024/03/11 09:12:09;;;;;;;25.75;17.35;;;8.80;99.90;;;;;;5042664;28;20079;-34
2024/03/11 09:14:35;;;;;;;20.98;15.75;;;8.80;99.90;;;;;;5042049;28;20036;-33
2024/03/11 09:17:00;;;;;;;24.63;17.45;;;8.90;99.90;;;;;;5042629;28;20033;-36
2024/03/11 09:19:27;;;;;;;25.05;17.75;;;8.90;99.90;;;;;;5041754;28;20021;-34
2024/03/11 09:21:54;;;;;;;22.27;16.75;;;8.90;99.90;;;;;;5043052;28;20033;-36
2024/03/11 09:24:20;;;;;;;24.20;17.73;;;8.90;99.90;;;;;;5042227;28;20111;-37
2024/03/11 09:26:49;;;;;;;26.35;18.63;;;8.90;99.90;;;;;;5041813;28;20404;-36
2024/03/11 09:29:19;;;;;;;26.83;19.25;;;9.00;99.90;;;;;;5041520;28;20029;-35
2024/03/11 09:31:48;;;;;;;25.73;17.77;;;8.90;99.90;;;;;;5042386;28;20066;-33
2024/03/11 09:34:14;;;;;;;23.42;16.73;;;8.90;99.90;;;;;;5041276;28;20800;-33
2024/03/11 09:36:40;;;;;;;23.42;17.35;;;9.00;99.90;;;;;;5042307;28;20052;-35
2024/03/11 09:39:06;;;;;;;24.25;17.55;;;9.00;99.90;;;;;;5042031;28;20025;-35
2024/03/11 09:41:48;;;;;;;23.17;17.23;;;9.00;99.90;;;;;;5041295;28;20082;-35
2024/03/11 09:44:18;;;;;;;27.00;18.77;;;9.00;99.90;;;;;;5042263;28;20416;-33
2024/03/11 09:46:45;;;;;;;25.80;18.75;;;9.00;99.90;;;;;;5041497;28;20076;-32
2024/03/11 09:49:19;;;;;;;24.00;17.58;;;9.00;99.90;;;;;;5040583;28;20032;-34
2024/03/11 09:51:46;;;;;;;26.95;18.08;;;9.00;99.90;;;;;;5042399;28;20028;-35
2024/03/11 09:54:13;;;;;;;23.08;17.67;;;9.00;99.90;;;;;;5041737;28;20021;-33
2024/03/11 09:56:49;;;;;;;24.98;18.13;;;9.00;99.90;;;;;;5041761;28;20048;-33
2024/03/11 09:59:20;;;;;;;24.92;18.45;;;9.00;99.90;;;;;;5042078;28;20082;-32
2024/03/11 10:01:52;;;;;;;24.48;17.83;;;9.00;99.90;;;;;;5041070;28;20037;-35
2024/03/11 10:04:29;;;;;;;23.88;16.95;;;9.00;99.90;;;;;;5042123;28;20021;-30
2024/03/11 10:07:04;;;;;;;23.13;16.75;;;9.00;99.90;;;;;;5043201;28;20060;-32
2024/03/11 10:09:31;;;;;;;22.10;15.88;;;8.90;99.90;;;;;;5041097;28;20484;-33
2024/03/11 10:12:02;;;;;;;20.92;15.90;;;8.90;99.90;;;;;;5041697;28;20078;-35
2024/03/11 10:14:30;;;;;;;22.08;15.70;;;8.90;99.90;;;;;;5042039;28;20056;-33
2024/03/11 10:17:16;;;;;;;22.27;16.73;;;8.90;99.90;;;;;;5040719;28;20095;-35
2024/03/11 10:19:59;;;;;;;21.27;14.77;;;9.00;99.90;;;;;;5041449;28;20063;-35
2024/03/11 10:22:33;;;;;;;24.92;15.98;;;9.00;99.90;;;;;;5032690;28;20443;-33
2024/03/11 10:25:02;;;;;;;22.05;16.20;;;9.00;99.90;;;;;;5040927;28;20101;-34
2024/03/11 10:27:33;;;;;;;22.50;15.68;;;9.00;99.90;;;;;;5041201;28;20162;-32
2024/03/11 10:30:19;;;;;;;22.75;16.67;;;8.90;99.90;;;;;;5040910;28;20108;-36
2024/03/11 10:32:45;;;;;;;22.15;16.55;;;9.00;99.90;;;;;;5032031;28;20088;-35
2024/03/11 10:35:14;;;;;;;20.95;16.13;;;9.00;99.90;;;;;;5041420;28;20036;-36
2024/03/11 10:37:46;;;;;;;21.55;15.95;;;9.00;99.90;;;;;;5030754;28;20078;-33
2024/03/11 10:40:17;;;;;;;21.45;15.35;;;9.00;99.90;;;;;;5041052;28;20090;-32
2024/03/11 10:42:52;;;;;;;19.53;14.87;;;9.00;99.90;;;;;;5040885;28;20034;-32
2024/03/11 10:45:41;;;;;;;20.85;14.77;;;9.00;99.90;;;;;;5040183;28;20301;-32
2024/03/11 10:48:09;;;;;;;18.70;14.45;;;9.10;99.90;;;;;;5030649;28;20108;-31
2024/03/11 10:50:35;;;;;;;21.48;15.38;;;9.00;99.90;;;;;;5040133;28;20028;-34
2024/03/11 10:53:06;;;;;;;24.38;17.30;;;9.10;99.90;;;;;;5040118;28;20536;-34
2024/03/11 10:55:34;;;;;;;23.33;17.50;;;9.10;99.90;;;;;;5040330;28;20033;-33
2024/03/11 10:58:00;;;;;;;26.55;18.75;;;9.10;99.90;;;;;;5040002;28;20018;-34
2024/03/11 11:00:33;;;;;;;25.02;18.08;;;9.10;99.90;;;;;;5040332;28;20112;-36
2024/03/11 11:03:08;;;;;;;;;;;9.10;99.90;;;;;;5031272;28;20140;-35
2024/03/11 11:05:43;;;;;;;25.50;18.00;;;9.00;99.90;;;;;;5039688;28;19915;-33
2024/03/11 11:08:12;;;;;;;23.13;17.30;;;9.00;99.90;;;;;;5040635;28;20045;-35
2024/03/11 11:10:39;;;;;;;23.60;16.90;;;9.00;99.90;;;;;;5040700;28;20991;-34
2024/03/11 11:13:05;;;;;;;23.30;17.10;;;9.00;99.90;;;;;;5039337;28;20135;-33
2024/03/11 11:15:35;;;;;;;22.83;16.67;;;9.00;99.90;;;;;;5041027;28;20076;-35
2024/03/11 11:18:08;;;;;;;23.65;17.50;;;9.00;99.90;;;;;;5039892;28;20108;-33
2024/03/11 11:20:42;;;;;;;;;;;9.00;99.90;;;;;;5039361;28;20053;-35
2024/03/11 11:23:10;;;;;;;22.88;15.90;;;9.00;99.90;;;;;;5040125;28;19931;-34
2024/03/11 11:25:41;;;;;;;22.42;16.00;;;9.00;99.90;;;;;;5020614;28;20128;-34
2024/03/11 11:28:15;;;;;;;22.08;17.02;;;9.00;99.90;;;;;;5034743;28;20028;-32
2024/03/11 11:30:43;;;;;;;23.25;17.25;;;9.00;99.90;;;;;;5039748;28;20896;-36
2024/03/11 11:33:10;;;;;;;24.00;17.27;;;9.00;99.90;;;;;;5039053;28;20070;-30
2024/03/11 11:35:45;;;;;;;22.40;17.02;;;9.00;99.90;;;;;;5040163;28;20076;-35
2024/03/11 11:38:38;;;;;;;22.35;17.05;;;9.00;99.90;;;;;;5040638;28;20021;-35
2024/03/11 11:41:36;;;;;;;25.45;17.90;;;9.00;99.90;;;;;;5038763;28;20029;-34
2024/03/11 11:44:03;;;;;;;23.15;17.05;;;8.90;99.90;;;;;;5040829;28;20021;-33
2024/03/11 11:46:51;;;;;;;21.80;16.27;;;9.00;99.90;;;;;;5040159;28;20043;-32
2024/03/11 11:49:21;;;;;;;22.10;15.75;;;9.00;99.90;;;;;;5039728;28;20028;-32
2024/03/11 11:51:48;;;;;;;22.02;16.45;;;9.00;99.90;;;;;;5040796;28;20048;-35
2024/03/11 11:54:34;;;;;;;22.30;15.95;;;9.10;99.90;;;;;;5038994;28;20427;-31
2024/03/11 11:57:06;;;;;;;21.80;16.13;;;9.10;99.90;;;;;;5040282;28;20064;-35
2024/03/11 11:59:40;;;;;;;21.65;16.00;;;9.10;99.90;;;;;;5039957;28;20072;-34
2024/03/11 12:02:21;;;;;;;23.50;16.73;;;9.10;99.90;;;;;;5040399;28;20028;-35
2024/03/11 12:04:54;;;;;;;21.65;15.95;;;9.10;99.90;;;;;;5040115;28;20029;-33
2024/03/11 12:07:25;;;;;;;20.05;15.20;;;9.00;99.90;;;;;;5038610;28;20480;-31
2024/03/11 12:09:51;;;;;;;21.70;16.23;;;9.10;99.90;;;;;;5039795;28;20036;-30
2024/03/11 12:12:26;;;;;;;23.00;16.23;;;9.10;99.90;;;;;;5039181;28;20044;-32
2024/03/11 12:14:52;;;;;;;23.88;17.05;;;9.10;99.90;;;;;;5039275;28;20079;-33
2024/03/11 12:17:18;;;;;;;24.67;16.83;;;9.10;99.90;;;;;;5037741;28;20686;-34
2024/03/11 12:19:43;;;;;;;22.63;16.60;;;9.10;99.90;;;;;;5037119;28;20073;-33
2024/03/11 12:22:16;;;;;;;20.35;15.98;;;9.10;99.90;;;;;;5037923;28;20039;-34
2024/03/11 12:24:43;;;;;;;22.25;16.33;;;9.10;99.90;;;;;;5037377;28;20060;-32
2024/03/11 12:27:15;;;;;;;22.95;17.02;;;9.20;99.90;;;;;;5037773;28;20035;-37
2024/03/11 12:29:41;;;;;;;21.48;16.23;;;9.20;99.90;;;;;;5038761;28;20044;-34
2024/03/11 12:32:16;;;;;;;23.20;16.65;;;9.20;99.90;;;;;;5039599;28;20371;-35
2024/03/11 12:34:42;;;;;;;21.83;16.50;;;9.20;99.90;;;;;;5039483;28;20017;-35
2024/03/11 12:37:09;;;;;;;20.73;15.45;;;9.20;99.90;;;;;;5038103;28;20048;-33
2024/03/11 12:39:42;;;;;;;21.67;15.73;;;9.20;99.90;;;;;;5038890;28;20024;-31